Wiley, Colorado
Current Conditions -  °F | °C
As of 11:53 AM on Monday 20 Oct 2014 (Local Time) from KLAA Reporting Station
Clear Clear  
Wind Chill: 68°   Ceiling: Unl
Heat Index: 68°   Visibility: 10mi
Dew Point: 46°   Wind: 0mph
Humidity: 45%   Direction: NA
Pressure: 30.15"   Gusts: NA
Location:  38.15°N, 102.72°W
Report Text: KLAA 201753Z AUTO 00000KT 10SM CLR 20/08 A3015 RMK AO2 SLP183 T02000078 10200 20028 58010
Loading
Personal Weather Stations






























Interactive Weather Map
Tropical Storm Tracking
New forecast layout! Learn more

10-Day Weather Forecast

Advertisements
Track Severe Weather on mobile